PROFILE

 METAR AND TAF INFORMATION
ADDS - METARS form results

(0545 UTC 22 September 2019)
http://aviationweather.gov/metar/data/
 
MHRO 220500Z 03004KT 9999 FEW025 27/24 Q1012 A2989 NOSIG
TAF MHRO 220425Z 2206/2306 00000KT 9999 FEW022 SCT070 TX33/2219Z TN26/2212Z BECMG 2214/2216 33004KT BECMG 2218/2220 03008KT SCT022TCU SCT080 BECMG 2301/2303 00000KT 

 AIRPORT MAP

 RUNWAY INFORMATION
Runway 07 Runway length 7349 ft Runway width 148 ft
Runway elevation 9 ft Runway displaced threshold 200 ft Runway heading 66
Runway 25 Runway length 7349 ft Runway width 148 ft
Runway elevation 17 ft Runway displaced threshold 0 ft Runway heading 246

 AIRPORT FREQUENCIES
Type GND Name GND Frequency 121.6 MHZ
Type TWR Name ROATAN TWR Frequency 118.1 MHZ

 AIRPORT NEAR NAVIGATION AIDS
Type VOR-DME Name Roatan Frequency 113800 KHZ
Type NDB Name Roatan Frequency 301 KHZ